Jp Tsubaki — JD2817 — position and weather

sailwx.info

Track history (hours):
 
Tides and Currents Weather Stations Pressure Air Temp Water Temp Dewpoint Dewpoint Depression Visibility Wind Speed Wind Dir Waves Ship Positions

Jp Tsubaki

Last reported at 2015-Mar-01 18:33 UTC. Time now 2015-Mar-01 19:23 UTC.
Position N 35°24' E 139°39'.

Length 115 m; draft 4.4 m.

Type: Cargo ship. MMSI: 431000734.

Date/timePositionNaut miles runAvg speedWind from/ knotsBaromVisibWave heightAir tempDewpointWater temp
2015-Mar-01 18:33N 35°24' E 139°39'0 0.0
2015-Mar-01 17:33N 35°24' E 139°39'0 0.0
2015-Mar-01 16:32N 35°24' E 139°39'0 0.0
2015-Mar-01 15:32N 35°24' E 139°39'0 0.0
2015-Mar-01 14:33N 35°24' E 139°39'0 0.0
2015-Mar-01 13:24N 35°24' E 139°39'3 3.2
2015-Mar-01 12:33N 35°23' E 139°41'2 2.0
2015-Mar-01 11:31N 35°22' E 139°43'0 0.2
2015-Mar-01 10:33N 35°22' E 139°43'4 3.6
2015-Mar-01 09:32N 35°24' E 139°40'0 0.0
2015-Mar-01 08:32N 35°24' E 139°40'0 0.0
2015-Mar-01 07:32N 35°24' E 139°40'0 0.0
2015-Mar-01 06:32N 35°24' E 139°40'0 0.0
2015-Mar-01 05:32N 35°24' E 139°40'0 0.0
2015-Mar-01 04:32N 35°24' E 139°40'1 1.3
2015-Mar-01 03:33N 35°24' E 139°39'0 0.0
2015-Mar-01 02:31N 35°24' E 139°39'0 0.0
2015-Mar-01 01:31N 35°24' E 139°39'0 0.0
2015-Mar-01 00:31N 35°24' E 139°39'0 0.0
2015-Feb-28 23:31N 35°24' E 139°39'0 0.0
2015-Feb-28 22:31N 35°24' E 139°39'0 0.0
2015-Feb-28 21:31N 35°24' E 139°39'0 0.0
2015-Feb-28 20:31N 35°24' E 139°39'0 0.0
2015-Feb-28 19:28N 35°24' E 139°39'0 0.0
2015-Feb-28 18:31N 35°24' E 139°39'0 0.0
2015-Feb-28 17:31N 35°24' E 139°39'0 0.0
2015-Feb-28 16:31N 35°24' E 139°39'0 0.0
2015-Feb-28 15:25N 35°24' E 139°39'0 0.0
2015-Feb-28 14:28N 35°24' E 139°39'0 0.0
2015-Feb-28 13:28N 35°24' E 139°39'1 1.2
2015-Feb-28 12:33N 35°24' E 139°40'0 0.1
2015-Feb-28 11:33N 35°24' E 139°40'0 0.0
2015-Feb-28 10:33N 35°24' E 139°40'0 0.0
2015-Feb-28 09:33N 35°24' E 139°40'0 0.0
2015-Feb-28 08:33N 35°24' E 139°40'0 0.0
2015-Feb-28 07:33N 35°24' E 139°40'0 0.0
2015-Feb-28 06:33N 35°24' E 139°40'0 0.0
2015-Feb-28 05:33N 35°24' E 139°40'0 0.0
2015-Feb-28 04:33N 35°24' E 139°40'1 1.2
2015-Feb-28 03:33N 35°24' E 139°39'0 0.0
2015-Feb-28 02:33N 35°24' E 139°39'0 0.0
2015-Feb-28 01:33N 35°24' E 139°39'0 0.0
2015-Feb-28 00:33N 35°24' E 139°39'0 0.0
2015-Feb-27 23:33N 35°24' E 139°39'0 0.0
2015-Feb-27 22:33N 35°24' E 139°39'0 0.0
2015-Feb-27 21:33N 35°24' E 139°39'0 0.0
2015-Feb-27 20:33N 35°24' E 139°39'0 0.0
2015-Feb-27 19:33N 35°24' E 139°39'0 0.0
2015-Feb-27 18:33N 35°24' E 139°39'0 0.0
2015-Feb-27 17:21N 35°24' E 139°39'0 0.0
2015-Feb-27 16:33N 35°24' E 139°39'0 0.0
2015-Feb-27 15:33N 35°24' E 139°39'0 0.0
2015-Feb-27 14:33N 35°24' E 139°39'0 0.1
2015-Feb-27 13:33N 35°24' E 139°38'6 6.3
2015-Feb-27 12:33N 35°26' E 139°46'10 9.3
2015-Feb-27 11:31N 35°29' E 139°57'2 0.9
2015-Feb-27 09:33N 35°27' E 139°58'2 0.5
2015-Feb-27 06:31N 35°29' E 139°57'1010.8
2015-Feb-27 05:33N 35°25' E 139°46'6 5.8
2015-Feb-27 04:33N 35°24' E 139°38'0 0.0
2015-Feb-27 03:33N 35°24' E 139°38'0 0.0
2015-Feb-27 02:33N 35°24' E 139°38'0 0.0
2015-Feb-27 01:33N 35°24' E 139°38'0 0.0
2015-Feb-27 00:33N 35°24' E 139°38'0 0.0
2015-Feb-26 23:33N 35°24' E 139°38'0 0.0
2015-Feb-26 22:33N 35°24' E 139°38'0 0.0
2015-Feb-26 21:33N 35°24' E 139°38'0 0.0
2015-Feb-26 20:33N 35°24' E 139°38'0 0.0
2015-Feb-26 19:33N 35°24' E 139°38'0 0.0
2015-Feb-26 18:33N 35°24' E 139°38'0 0.0
2015-Feb-26 17:33N 35°24' E 139°38'0 0.0
2015-Feb-26 16:33N 35°24' E 139°38'0 0.0
2015-Feb-26 15:30N 35°24' E 139°38'0 0.0
2015-Feb-26 14:33N 35°24' E 139°38'3 3.4
2015-Feb-26 13:33N 35°23' E 139°42'1 1.2
2015-Feb-26 12:33N 35°23' E 139°43'0 0.2
2015-Feb-26 11:33N 35°23' E 139°44'0 0.0
2015-Feb-26 10:33N 35°23' E 139°44'0 0.0
2015-Feb-26 09:33N 35°23' E 139°44'0 0.1
2015-Feb-26 08:33N 35°23' E 139°43'3 3.3
2015-Feb-26 07:33N 35°24' E 139°40'0 0.0
2015-Feb-26 06:31N 35°24' E 139°40'0 0.0
2015-Feb-26 05:31N 35°24' E 139°40'0 0.0
2015-Feb-26 04:31N 35°24' E 139°40'1 1.3
2015-Feb-26 03:33N 35°24' E 139°39'0 0.0
2015-Feb-26 02:33N 35°24' E 139°39'0 0.0
2015-Feb-26 01:33N 35°24' E 139°39'0 0.0
2015-Feb-26 00:33N 35°24' E 139°39'0 0.0
2015-Feb-25 23:09N 35°24' E 139°39'0 0.0
2015-Feb-25 22:21N 35°24' E 139°39'0 0.0
2015-Feb-25 18:15N 35°24' E 139°39'0 0.0
2015-Feb-25 17:33N 35°24' E 139°39'0 0.0
2015-Feb-25 16:33N 35°24' E 139°39'0 0.0
2015-Feb-25 15:33N 35°24' E 139°39'0 0.0
2015-Feb-25 14:33N 35°24' E 139°39'5 4.8
2015-Feb-25 13:34N 35°24' E 139°44'0 0.0
2015-Feb-25 12:33N 35°24' E 139°44'9 9.2
2015-Feb-25 11:33N 35°30' E 139°53'5 2.2
2015-Feb-25 09:20N 35°27' E 139°58'0 0.0
2015-Feb-25 06:33N 35°27' E 139°58'8 7.7
2015-Feb-25 05:33N 35°26' E 139°49'9 8.6
2015-Feb-25 04:33N 35°24' E 139°39'0 0.0
2015-Feb-25 03:31N 35°24' E 139°39'0 0.0
2015-Feb-25 02:31N 35°24' E 139°39'0 0.0
2015-Feb-25 01:31N 35°24' E 139°39'0 0.0
2015-Feb-25 00:31N 35°24' E 139°39'0 0.0
2015-Feb-24 23:31N 35°24' E 139°39'0 0.0
2015-Feb-24 22:25N 35°24' E 139°39'0 0.0
2015-Feb-24 21:31N 35°24' E 139°39'0 0.0
2015-Feb-24 20:31N 35°24' E 139°39'0 0.0
2015-Feb-24 19:31N 35°24' E 139°39'0 0.0
2015-Feb-24 18:31N 35°24' E 139°39'0 0.0
2015-Feb-24 17:31N 35°24' E 139°39'0 0.0
2015-Feb-24 16:31N 35°24' E 139°39'0 0.0
2015-Feb-24 15:31N 35°24' E 139°39'0 0.0
2015-Feb-24 14:31N 35°24' E 139°39'0 0.0
2015-Feb-24 13:33N 35°24' E 139°39'5 5.0
2015-Feb-24 12:33N 35°26' E 139°44'1110.1
2015-Feb-24 11:30N 35°30' E 139°56'0 0.2
2015-Feb-24 10:13N 35°30' E 139°57'0 0.0
2015-Feb-24 09:31N 35°30' E 139°57'0 0.0
2015-Feb-24 08:25N 35°30' E 139°57'0 0.0
2015-Feb-24 07:31N 35°30' E 139°57'0 0.0
2015-Feb-24 06:31N 35°30' E 139°57'0 0.0
2015-Feb-24 05:31N 35°30' E 139°57'0 0.0
2015-Feb-24 04:31N 35°30' E 139°57'0 0.0
2015-Feb-24 03:31N 35°30' E 139°57'0 0.0
2015-Feb-24 02:31N 35°30' E 139°57'0 0.0
2015-Feb-24 01:31N 35°30' E 139°57'0 0.0
2015-Feb-24 00:22N 35°30' E 139°57'0 0.0
2015-Feb-23 23:28N 35°30' E 139°57'0 0.0
2015-Feb-23 22:22N 35°30' E 139°57'0 0.0
2015-Feb-23 21:31N 35°30' E 139°57'0 0.0
2015-Feb-23 20:25N 35°30' E 139°57'2 2.5
2015-Feb-23 19:33N 35°28' E 139°58'0 0.3
2015-Feb-23 18:24N 35°27' E 139°58'0 0.0
2015-Feb-23 17:30N 35°27' E 139°58'0 0.0
2015-Feb-23 16:18N 35°27' E 139°58'0 0.0
2015-Feb-23 15:06N 35°27' E 139°58'0 0.3
2015-Feb-23 14:33N 35°28' E 139°58'8 7.7
2015-Feb-23 13:33N 35°27' E 139°49'9 8.7
2015-Feb-23 12:33N 35°24' E 139°39'0 0.0
2015-Feb-23 11:33N 35°24' E 139°39'0 0.0
2015-Feb-23 10:33N 35°24' E 139°39'0 0.0
2015-Feb-23 09:33N 35°24' E 139°39'0 0.0
2015-Feb-23 08:33N 35°24' E 139°39'0 0.0
2015-Feb-23 07:33N 35°24' E 139°39'0 0.5
2015-Feb-23 06:33N 35°24' E 139°39'8 7.7
2015-Feb-23 05:33N 35°28' E 139°47'4 3.5
2015-Feb-23 04:33N 35°30' E 139°43'0 0.0
2015-Feb-23 03:33N 35°30' E 139°43'0 0.0
2015-Feb-23 02:33N 35°30' E 139°43'0 0.0
2015-Feb-23 01:33N 35°30' E 139°43'0 0.0
2015-Feb-23 00:33N 35°30' E 139°43'0 0.0
2015-Feb-22 23:33N 35°30' E 139°43'0 0.3
2015-Feb-22 22:33N 35°29' E 139°43'4 3.7
2015-Feb-22 21:33N 35°27' E 139°46'2 2.2
2015-Feb-22 20:29N 35°24' E 139°46'0 0.0
2015-Feb-22 19:33N 35°24' E 139°46'0 0.0
2015-Feb-22 18:29N 35°24' E 139°45'0 0.0
2015-Feb-22 17:32N 35°24' E 139°45'0 0.1
2015-Feb-22 16:33N 35°24' E 139°46'0 0.0
2015-Feb-22 15:29N 35°24' E 139°45'0 0.0
2015-Feb-22 14:30N 35°24' E 139°45'0 0.1
2015-Feb-22 13:32N 35°24' E 139°46'0 0.1
2015-Feb-22 12:32N 35°24' E 139°45'0 0.0
2015-Feb-22 11:32N 35°24' E 139°45'6 5.8
2015-Feb-22 10:33N 35°24' E 139°39'0 0.0
2015-Feb-22 09:31N 35°24' E 139°39'0 0.0
2015-Feb-22 08:31N 35°24' E 139°39'0 0.0
2015-Feb-22 07:31N 35°24' E 139°39'0 0.0
2015-Feb-22 06:28N 35°24' E 139°39'0 0.0
2015-Feb-22 05:31N 35°24' E 139°39'0 0.2
2015-Feb-22 04:33N 35°24' E 139°38'1 1.3
2015-Feb-22 03:31N 35°24' E 139°40'0 0.0
2015-Feb-22 02:31N 35°24' E 139°40'0 0.0
2015-Feb-22 01:31N 35°24' E 139°40'0 0.0
2015-Feb-22 00:31N 35°24' E 139°40'0 0.0
2015-Feb-21 23:31N 35°24' E 139°40'0 0.0
2015-Feb-21 22:31N 35°24' E 139°40'2 2.0
2015-Feb-21 21:33N 35°23' E 139°42'2 2.4
2015-Feb-21 20:33N 35°21' E 139°44'0 0.1
2015-Feb-21 19:33N 35°22' E 139°44'0 0.0
2015-Feb-21 18:33N 35°22' E 139°44'0 0.0
2015-Feb-21 17:33N 35°21' E 139°44'0 0.0
2015-Feb-21 16:30N 35°21' E 139°44'0 0.0
2015-Feb-21 15:30N 35°21' E 139°44'0 0.0
2015-Feb-21 14:33N 35°21' E 139°44'0 0.0
2015-Feb-21 13:33N 35°21' E 139°44'0 0.0
2015-Feb-21 12:33N 35°21' E 139°44'0 0.0
2015-Feb-21 11:33N 35°21' E 139°44'5 5.2
2015-Feb-21 10:33N 35°24' E 139°39'0 0.0
2015-Feb-21 09:33N 35°24' E 139°39'0 0.0
2015-Feb-21 08:33N 35°24' E 139°39'0 0.0
2015-Feb-21 07:33N 35°24' E 139°39'0 0.0
2015-Feb-21 06:33N 35°24' E 139°39'0 0.0
2015-Feb-21 05:33N 35°24' E 139°39'0 0.3
2015-Feb-21 04:33N 35°24' E 139°38'1 1.4
2015-Feb-21 03:33N 35°24' E 139°40'0 0.0
2015-Feb-21 02:33N 35°24' E 139°40'0 0.0
2015-Feb-21 01:33N 35°24' E 139°40'0 0.0
2015-Feb-21 00:33N 35°24' E 139°40'0 0.0
2015-Feb-20 23:33N 35°24' E 139°40'0 0.0
2015-Feb-20 22:33N 35°24' E 139°40'2 2.0
2015-Feb-20 21:34N 35°23' E 139°42'2 2.0
2015-Feb-20 20:31N 35°22' E 139°44'0 0.1
2015-Feb-20 19:31N 35°22' E 139°44'0 0.1
2015-Feb-20 18:31N 35°22' E 139°44'0 0.1
2015-Feb-20 17:31N 35°22' E 139°44'0 0.0
2015-Feb-20 16:31N 35°22' E 139°44'0 0.0
2015-Feb-20 15:31N 35°22' E 139°44'0 0.0
2015-Feb-20 14:31N 35°22' E 139°44'0 0.0
2015-Feb-20 13:31N 35°22' E 139°44'5 5.1
2015-Feb-20 12:33N 35°24' E 139°39'0 0.0
2015-Feb-20 11:31N 35°24' E 139°39'0 0.0
2015-Feb-20 10:28N 35°24' E 139°39'0 0.0
2015-Feb-20 09:31N 35°24' E 139°39'0 0.0
2015-Feb-20 08:31N 35°24' E 139°39'0 0.0
2015-Feb-20 07:31N 35°24' E 139°39'0 0.3
2015-Feb-20 06:34N 35°24' E 139°38'1 1.3
2015-Feb-20 05:32N 35°24' E 139°40'0 0.0
2015-Feb-20 04:32N 35°24' E 139°40'0 0.0
2015-Feb-20 03:32N 35°24' E 139°40'0 0.0
2015-Feb-20 02:32N 35°24' E 139°40'0 0.0
2015-Feb-20 01:32N 35°24' E 139°40'0 0.0
2015-Feb-20 00:32N 35°24' E 139°40'0 0.0
2015-Feb-19 23:33N 35°24' E 139°40'1 1.1
2015-Feb-19 22:33N 35°25' E 139°41'0 0.2
2015-Feb-19 21:33N 35°25' E 139°41'0 0.0
2015-Feb-19 20:33N 35°25' E 139°41'0 0.0
2015-Feb-19 19:33N 35°25' E 139°41'0 0.0
2015-Feb-19 18:33N 35°25' E 139°41'  
Track history (hours):
 
Tides and Currents Weather Stations Pressure Air Temp Water Temp Dewpoint Dewpoint Depression Visibility Wind Speed Wind Dir Waves Ship Positions

Jp Tsubaki

Last reported at 2015-Mar-01 18:33 UTC. Time now 2015-Mar-01 19:23 UTC.
Position N 35°24' E 139°39'.

Length 115 m; draft 4.4 m.

Type: Cargo ship. MMSI: 431000734.

Date/timePositionNaut miles runAvg speedWind from/ knotsBaromVisibWave heightAir tempDewpointWater temp
2015-Mar-01 18:33N 35°24' E 139°39'0 0.0
2015-Mar-01 17:33N 35°24' E 139°39'0 0.0
2015-Mar-01 16:32N 35°24' E 139°39'0 0.0
2015-Mar-01 15:32N 35°24' E 139°39'0 0.0
2015-Mar-01 14:33N 35°24' E 139°39'0 0.0
2015-Mar-01 13:24N 35°24' E 139°39'3 3.2
2015-Mar-01 12:33N 35°23' E 139°41'2 2.0
2015-Mar-01 11:31N 35°22' E 139°43'0 0.2
2015-Mar-01 10:33N 35°22' E 139°43'4 3.6
2015-Mar-01 09:32N 35°24' E 139°40'0 0.0
2015-Mar-01 08:32N 35°24' E 139°40'0 0.0
2015-Mar-01 07:32N 35°24' E 139°40'0 0.0
2015-Mar-01 06:32N 35°24' E 139°40'0 0.0
2015-Mar-01 05:32N 35°24' E 139°40'0 0.0
2015-Mar-01 04:32N 35°24' E 139°40'1 1.3
2015-Mar-01 03:33N 35°24' E 139°39'0 0.0
2015-Mar-01 02:31N 35°24' E 139°39'0 0.0
2015-Mar-01 01:31N 35°24' E 139°39'0 0.0
2015-Mar-01 00:31N 35°24' E 139°39'0 0.0
2015-Feb-28 23:31N 35°24' E 139°39'0 0.0
2015-Feb-28 22:31N 35°24' E 139°39'0 0.0
2015-Feb-28 21:31N 35°24' E 139°39'0 0.0
2015-Feb-28 20:31N 35°24' E 139°39'0 0.0
2015-Feb-28 19:28N 35°24' E 139°39'0 0.0
2015-Feb-28 18:31N 35°24' E 139°39'0 0.0
2015-Feb-28 17:31N 35°24' E 139°39'0 0.0
2015-Feb-28 16:31N 35°24' E 139°39'0 0.0
2015-Feb-28 15:25N 35°24' E 139°39'0 0.0
2015-Feb-28 14:28N 35°24' E 139°39'0 0.0
2015-Feb-28 13:28N 35°24' E 139°39'1 1.2
2015-Feb-28 12:33N 35°24' E 139°40'0 0.1
2015-Feb-28 11:33N 35°24' E 139°40'0 0.0
2015-Feb-28 10:33N 35°24' E 139°40'0 0.0
2015-Feb-28 09:33N 35°24' E 139°40'0 0.0
2015-Feb-28 08:33N 35°24' E 139°40'0 0.0
2015-Feb-28 07:33N 35°24' E 139°40'0 0.0
2015-Feb-28 06:33N 35°24' E 139°40'0 0.0
2015-Feb-28 05:33N 35°24' E 139°40'0 0.0
2015-Feb-28 04:33N 35°24' E 139°40'1 1.2
2015-Feb-28 03:33N 35°24' E 139°39'0 0.0
2015-Feb-28 02:33N 35°24' E 139°39'0 0.0
2015-Feb-28 01:33N 35°24' E 139°39'0 0.0
2015-Feb-28 00:33N 35°24' E 139°39'0 0.0
2015-Feb-27 23:33N 35°24' E 139°39'0 0.0
2015-Feb-27 22:33N 35°24' E 139°39'0 0.0
2015-Feb-27 21:33N 35°24' E 139°39'0 0.0
2015-Feb-27 20:33N 35°24' E 139°39'0 0.0
2015-Feb-27 19:33N 35°24' E 139°39'0 0.0
2015-Feb-27 18:33N 35°24' E 139°39'0 0.0
2015-Feb-27 17:21N 35°24' E 139°39'0 0.0
2015-Feb-27 16:33N 35°24' E 139°39'0 0.0
2015-Feb-27 15:33N 35°24' E 139°39'0 0.0
2015-Feb-27 14:33N 35°24' E 139°39'0 0.1
2015-Feb-27 13:33N 35°24' E 139°38'6 6.3
2015-Feb-27 12:33N 35°26' E 139°46'10 9.3
2015-Feb-27 11:31N 35°29' E 139°57'2 0.9
2015-Feb-27 09:33N 35°27' E 139°58'2 0.5
2015-Feb-27 06:31N 35°29' E 139°57'1010.8
2015-Feb-27 05:33N 35°25' E 139°46'6 5.8
2015-Feb-27 04:33N 35°24' E 139°38'0 0.0
2015-Feb-27 03:33N 35°24' E 139°38'0 0.0
2015-Feb-27 02:33N 35°24' E 139°38'0 0.0
2015-Feb-27 01:33N 35°24' E 139°38'0 0.0
2015-Feb-27 00:33N 35°24' E 139°38'0 0.0
2015-Feb-26 23:33N 35°24' E 139°38'0 0.0
2015-Feb-26 22:33N 35°24' E 139°38'0 0.0
2015-Feb-26 21:33N 35°24' E 139°38'0 0.0
2015-Feb-26 20:33N 35°24' E 139°38'0 0.0
2015-Feb-26 19:33N 35°24' E 139°38'0 0.0
2015-Feb-26 18:33N 35°24' E 139°38'0 0.0
2015-Feb-26 17:33N 35°24' E 139°38'0 0.0
2015-Feb-26 16:33N 35°24' E 139°38'0 0.0
2015-Feb-26 15:30N 35°24' E 139°38'0 0.0
2015-Feb-26 14:33N 35°24' E 139°38'3 3.4
2015-Feb-26 13:33N 35°23' E 139°42'1 1.2
2015-Feb-26 12:33N 35°23' E 139°43'0 0.2
2015-Feb-26 11:33N 35°23' E 139°44'0 0.0
2015-Feb-26 10:33N 35°23' E 139°44'0 0.0
2015-Feb-26 09:33N 35°23' E 139°44'0 0.1
2015-Feb-26 08:33N 35°23' E 139°43'3 3.3
2015-Feb-26 07:33N 35°24' E 139°40'0 0.0
2015-Feb-26 06:31N 35°24' E 139°40'0 0.0
2015-Feb-26 05:31N 35°24' E 139°40'0 0.0
2015-Feb-26 04:31N 35°24' E 139°40'1 1.3
2015-Feb-26 03:33N 35°24' E 139°39'0 0.0
2015-Feb-26 02:33N 35°24' E 139°39'0 0.0
2015-Feb-26 01:33N 35°24' E 139°39'0 0.0
2015-Feb-26 00:33N 35°24' E 139°39'0 0.0
2015-Feb-25 23:09N 35°24' E 139°39'0 0.0
2015-Feb-25 22:21N 35°24' E 139°39'0 0.0
2015-Feb-25 18:15N 35°24' E 139°39'0 0.0
2015-Feb-25 17:33N 35°24' E 139°39'0 0.0
2015-Feb-25 16:33N 35°24' E 139°39'0 0.0
2015-Feb-25 15:33N 35°24' E 139°39'0 0.0
2015-Feb-25 14:33N 35°24' E 139°39'5 4.8
2015-Feb-25 13:34N 35°24' E 139°44'0 0.0
2015-Feb-25 12:33N 35°24' E 139°44'9 9.2
2015-Feb-25 11:33N 35°30' E 139°53'5 2.2
2015-Feb-25 09:20N 35°27' E 139°58'0 0.0
2015-Feb-25 06:33N 35°27' E 139°58'8 7.7
2015-Feb-25 05:33N 35°26' E 139°49'9 8.6
2015-Feb-25 04:33N 35°24' E 139°39'0 0.0
2015-Feb-25 03:31N 35°24' E 139°39'0 0.0
2015-Feb-25 02:31N 35°24' E 139°39'0 0.0
2015-Feb-25 01:31N 35°24' E 139°39'0 0.0
2015-Feb-25 00:31N 35°24' E 139°39'0 0.0
2015-Feb-24 23:31N 35°24' E 139°39'0 0.0
2015-Feb-24 22:25N 35°24' E 139°39'0 0.0
2015-Feb-24 21:31N 35°24' E 139°39'0 0.0
2015-Feb-24 20:31N 35°24' E 139°39'0 0.0
2015-Feb-24 19:31N 35°24' E 139°39'0 0.0
2015-Feb-24 18:31N 35°24' E 139°39'0 0.0
2015-Feb-24 17:31N 35°24' E 139°39'0 0.0
2015-Feb-24 16:31N 35°24' E 139°39'0 0.0
2015-Feb-24 15:31N 35°24' E 139°39'0 0.0
2015-Feb-24 14:31N 35°24' E 139°39'0 0.0
2015-Feb-24 13:33N 35°24' E 139°39'5 5.0
2015-Feb-24 12:33N 35°26' E 139°44'1110.1
2015-Feb-24 11:30N 35°30' E 139°56'0 0.2
2015-Feb-24 10:13N 35°30' E 139°57'0 0.0
2015-Feb-24 09:31N 35°30' E 139°57'0 0.0
2015-Feb-24 08:25N 35°30' E 139°57'0 0.0
2015-Feb-24 07:31N 35°30' E 139°57'0 0.0
2015-Feb-24 06:31N 35°30' E 139°57'0 0.0
2015-Feb-24 05:31N 35°30' E 139°57'0 0.0
2015-Feb-24 04:31N 35°30' E 139°57'0 0.0
2015-Feb-24 03:31N 35°30' E 139°57'0 0.0
2015-Feb-24 02:31N 35°30' E 139°57'0 0.0
2015-Feb-24 01:31N 35°30' E 139°57'0 0.0
2015-Feb-24 00:22N 35°30' E 139°57'0 0.0
2015-Feb-23 23:28N 35°30' E 139°57'0 0.0
2015-Feb-23 22:22N 35°30' E 139°57'0 0.0
2015-Feb-23 21:31N 35°30' E 139°57'0 0.0
2015-Feb-23 20:25N 35°30' E 139°57'2 2.5
2015-Feb-23 19:33N 35°28' E 139°58'0 0.3
2015-Feb-23 18:24N 35°27' E 139°58'0 0.0
2015-Feb-23 17:30N 35°27' E 139°58'0 0.0
2015-Feb-23 16:18N 35°27' E 139°58'0 0.0
2015-Feb-23 15:06N 35°27' E 139°58'0 0.3
2015-Feb-23 14:33N 35°28' E 139°58'8 7.7
2015-Feb-23 13:33N 35°27' E 139°49'9 8.7
2015-Feb-23 12:33N 35°24' E 139°39'0 0.0
2015-Feb-23 11:33N 35°24' E 139°39'0 0.0
2015-Feb-23 10:33N 35°24' E 139°39'0 0.0
2015-Feb-23 09:33N 35°24' E 139°39'0 0.0
2015-Feb-23 08:33N 35°24' E 139°39'0 0.0
2015-Feb-23 07:33N 35°24' E 139°39'0 0.5
2015-Feb-23 06:33N 35°24' E 139°39'8 7.7
2015-Feb-23 05:33N 35°28' E 139°47'4 3.5
2015-Feb-23 04:33N 35°30' E 139°43'0 0.0
2015-Feb-23 03:33N 35°30' E 139°43'0 0.0
2015-Feb-23 02:33N 35°30' E 139°43'0 0.0
2015-Feb-23 01:33N 35°30' E 139°43'0 0.0
2015-Feb-23 00:33N 35°30' E 139°43'0 0.0
2015-Feb-22 23:33N 35°30' E 139°43'0 0.3
2015-Feb-22 22:33N 35°29' E 139°43'4 3.7
2015-Feb-22 21:33N 35°27' E 139°46'2 2.2
2015-Feb-22 20:29N 35°24' E 139°46'0 0.0
2015-Feb-22 19:33N 35°24' E 139°46'0 0.0
2015-Feb-22 18:29N 35°24' E 139°45'0 0.0
2015-Feb-22 17:32N 35°24' E 139°45'0 0.1
2015-Feb-22 16:33N 35°24' E 139°46'0 0.0
2015-Feb-22 15:29N 35°24' E 139°45'0 0.0
2015-Feb-22 14:30N 35°24' E 139°45'0 0.1
2015-Feb-22 13:32N 35°24' E 139°46'0 0.1
2015-Feb-22 12:32N 35°24' E 139°45'0 0.0
2015-Feb-22 11:32N 35°24' E 139°45'6 5.8
2015-Feb-22 10:33N 35°24' E 139°39'0 0.0
2015-Feb-22 09:31N 35°24' E 139°39'0 0.0
2015-Feb-22 08:31N 35°24' E 139°39'0 0.0
2015-Feb-22 07:31N 35°24' E 139°39'0 0.0
2015-Feb-22 06:28N 35°24' E 139°39'0 0.0
2015-Feb-22 05:31N 35°24' E 139°39'0 0.2
2015-Feb-22 04:33N 35°24' E 139°38'1 1.3
2015-Feb-22 03:31N 35°24' E 139°40'0 0.0
2015-Feb-22 02:31N 35°24' E 139°40'0 0.0
2015-Feb-22 01:31N 35°24' E 139°40'0 0.0
2015-Feb-22 00:31N 35°24' E 139°40'0 0.0
2015-Feb-21 23:31N 35°24' E 139°40'0 0.0
2015-Feb-21 22:31N 35°24' E 139°40'2 2.0
2015-Feb-21 21:33N 35°23' E 139°42'2 2.4
2015-Feb-21 20:33N 35°21' E 139°44'0 0.1
2015-Feb-21 19:33N 35°22' E 139°44'0 0.0
2015-Feb-21 18:33N 35°22' E 139°44'0 0.0
2015-Feb-21 17:33N 35°21' E 139°44'0 0.0
2015-Feb-21 16:30N 35°21' E 139°44'0 0.0
2015-Feb-21 15:30N 35°21' E 139°44'0 0.0
2015-Feb-21 14:33N 35°21' E 139°44'0 0.0
2015-Feb-21 13:33N 35°21' E 139°44'0 0.0
2015-Feb-21 12:33N 35°21' E 139°44'0 0.0
2015-Feb-21 11:33N 35°21' E 139°44'5 5.2
2015-Feb-21 10:33N 35°24' E 139°39'0 0.0
2015-Feb-21 09:33N 35°24' E 139°39'0 0.0
2015-Feb-21 08:33N 35°24' E 139°39'0 0.0
2015-Feb-21 07:33N 35°24' E 139°39'0 0.0
2015-Feb-21 06:33N 35°24' E 139°39'0 0.0
2015-Feb-21 05:33N 35°24' E 139°39'0 0.3
2015-Feb-21 04:33N 35°24' E 139°38'1 1.4
2015-Feb-21 03:33N 35°24' E 139°40'0 0.0
2015-Feb-21 02:33N 35°24' E 139°40'0 0.0
2015-Feb-21 01:33N 35°24' E 139°40'0 0.0
2015-Feb-21 00:33N 35°24' E 139°40'0 0.0
2015-Feb-20 23:33N 35°24' E 139°40'0 0.0
2015-Feb-20 22:33N 35°24' E 139°40'2 2.0
2015-Feb-20 21:34N 35°23' E 139°42'2 2.0
2015-Feb-20 20:31N 35°22' E 139°44'0 0.1
2015-Feb-20 19:31N 35°22' E 139°44'0 0.1
2015-Feb-20 18:31N 35°22' E 139°44'0 0.1
2015-Feb-20 17:31N 35°22' E 139°44'0 0.0
2015-Feb-20 16:31N 35°22' E 139°44'0 0.0
2015-Feb-20 15:31N 35°22' E 139°44'0 0.0
2015-Feb-20 14:31N 35°22' E 139°44'0 0.0
2015-Feb-20 13:31N 35°22' E 139°44'5 5.1
2015-Feb-20 12:33N 35°24' E 139°39'0 0.0
2015-Feb-20 11:31N 35°24' E 139°39'0 0.0
2015-Feb-20 10:28N 35°24' E 139°39'0 0.0
2015-Feb-20 09:31N 35°24' E 139°39'0 0.0
2015-Feb-20 08:31N 35°24' E 139°39'0 0.0
2015-Feb-20 07:31N 35°24' E 139°39'0 0.3
2015-Feb-20 06:34N 35°24' E 139°38'1 1.3
2015-Feb-20 05:32N 35°24' E 139°40'0 0.0
2015-Feb-20 04:32N 35°24' E 139°40'0 0.0
2015-Feb-20 03:32N 35°24' E 139°40'0 0.0
2015-Feb-20 02:32N 35°24' E 139°40'0 0.0
2015-Feb-20 01:32N 35°24' E 139°40'0 0.0
2015-Feb-20 00:32N 35°24' E 139°40'0 0.0
2015-Feb-19 23:33N 35°24' E 139°40'1 1.1
2015-Feb-19 22:33N 35°25' E 139°41'0 0.2
2015-Feb-19 21:33N 35°25' E 139°41'0 0.0
2015-Feb-19 20:33N 35°25' E 139°41'0 0.0
2015-Feb-19 19:33N 35°25' E 139°41'0 0.0
2015-Feb-19 18:33N 35°25' E 139°41'  

Dump ship's entire track history